Terminal Aerodrome Forecast
Issued by NWS

Home | Current Version | Previous Version | Text Only | Print | Product List | Glossary On
Versions: 1 2 3 4 5 6 7 8 9 10 11 12 13 14 15
000
FTUS41 KPBZ 231100
TAFLBE
TAF
KLBE 231127Z 2312/2412 31008G16KT P6SM OVC022
     FM231700 32012G22KT P6SM BKN035
     FM232000 32014G22KT P6SM SCT040
     FM240000 31006KT P6SM SKC=

USA.gov is the U.S. government's official web portal to all federal, state and local government web resources and services.